AirNav   Pilot Hours Calculator
 
 762 users online  

52MN Anderson Field Airport
Kennedy, Minnesota, USA

GOING TO KENNEDY?


FAA INFORMATION EFFECTIVE 11 AUGUST 2022

Location

FAA Identifier: 52MN
Lat/Long: 48-38-34.9250N 096-48-26.1960W
48-38.582083N 096-48.436600W
48.6430347,-96.8072767
(estimated)
Elevation: 800 ft. / 244 m (estimated)
Variation: 06E (1985)
From city: 5 miles E of KENNEDY, MN
Time zone: UTC -5 (UTC -6 during Standard Time)
Zip code: 56733

Airport Operations

Airport use: Private use, PERSONAL USE.
Activation date: 12/1978
Control tower: no
ARTCC: MINNEAPOLIS CENTER
FSS: PRINCETON FLIGHT SERVICE STATION
Attendance: UNATNDD
Wind indicator: yes
Segmented circle: no

Airport Communications

WX AWOS-3 at HCO (8 nm NW): 126.475 (218-843-2415)

Airport Services

Runway Information

Runway N/S

Dimensions: 3000 x 100 ft. / 914 x 30 m
Surface: turf
RUNWAY N  RUNWAY S
Traffic pattern: leftleft
Obstructions: polenone

Airport Ownership and Management from official FAA records

Ownership: Privately-owned
Owner: EVANS ANDERSON
1650 300TH AVE
KENNEDY, MN 56733
Phone 218-674-4427
ANDERSON FLYING SERVICE INC.
Manager: RICHARD ANDERSON
7808 LOWE OAK RD
BRAINERD, MN 56401
Phone (507) 475-0239
540-464-5883 HOME

Airport Operational Statistics

Aircraft based on the field: 1
Single engine airplanes: 1
    

Additional Remarks

FOR CD CTC MINNEAPOLIS ARTCC AT 651-463-5588.

Instrument Procedures

There are no published instrument procedures at 52MN.

Some nearby airports with instrument procedures:

KHCO - Hallock Municipal Airport (8 nm NW)
KPMB - Pembina Municipal Airport (25 nm NW)
KGAF - Hutson Field Airport (27 nm SW)
D37 - Warren Municipal Airport (27 nm S)
2C8 - Cavalier Municipal Airport (34 nm W)
 
Loc | Ops | Rwys | IFR | FBO | Links
Com | Nav | Svcs | Stats | Notes
Area around 52MN (Anderson Field Airport)
 
Road maps at: MapQuest Bing Google
 
Aerial photo
No photo
 
Sectional chart

 
Airport distance calculator
Flying to Anderson Field Airport? Find the distance to fly.

From to 52MN

Sunrise and sunset
Times for 17-Aug-2022
 Local
(UTC-5)
 Zulu
(UTC)
Morning civil twilight05:5010:50
Sunrise06:2411:24
Sunset20:3801:38
Evening civil twilight21:1302:13

Current date and time
Zulu (UTC)  17-Aug-2022 05:07:05
Local (UTC-5)  17-Aug-2022 00:07:05
 
METAR
KHCO 
8nm NW 
170456Z AUTO CLR 16/16 A3003 RMK AO2
TAF
KTVF 
43nm SE 
161740Z 1618/1718 24010KT P6SM OVC011 FM162000 29007KT P6SM SCT050 FM170000 VRB03KT P6SM SCT200
KGFK 
44nm S 
161740Z 1618/1718 VRB05KT P6SM BKN013 FM162000 29007KT P6SM SCT050 FM170000 VRB03KT P6SM SCT200
KRDR 
47nm SW 
170410Z 1704/1808 VRB06KT 9999 SCT030 QNH3002INS BECMG 1707/1708 VRB06KT 9999 BKN020 QNH3004INS BECMG 1717/1718 VRB06KT 9999 SCT025 QNH2994INS TX28/1722Z TN18/1709Z LAST NO AMDS AFT 1704 NEXT 1710
NOTAMs
Click for the latest NOTAMs
NOTAMs are issued by the DoD/FAA and will open in a separate window not controlled by AirNav.

 

 
 

Would you like to see your business listed on this page?

 If your business provides an interesting product or service to pilots, flight crews, aircraft, or users of the Anderson Field Airport, you should consider listing it here.  To start the listing process, click on the button below
 
Add a business
 

Other Pages about Anderson Field Airport

Update a link
 
Copyright © AirNav, LLC. All rights reserved. Privacy Policy  Contact